createdAt,value
2022-09-13T00:01:46.511Z,15.40
2022-09-13T00:04:13.668Z,15.40
2022-09-13T00:06:40.688Z,15.50
2022-09-13T00:09:07.734Z,15.60
2022-09-13T00:11:34.681Z,15.70
2022-09-13T00:14:02.686Z,15.70
2022-09-13T00:16:32.145Z,15.70
2022-09-13T00:19:00.206Z,15.70
2022-09-13T00:21:29.235Z,15.70
2022-09-13T00:23:56.666Z,15.70
2022-09-13T00:26:26.061Z,15.70
2022-09-13T00:28:55.099Z,15.80
2022-09-13T00:31:24.308Z,15.80
2022-09-13T00:33:51.757Z,15.80
2022-09-13T00:36:18.712Z,15.80
2022-09-13T00:38:45.637Z,15.70
2022-09-13T00:41:15.099Z,15.70
2022-09-13T00:43:57.855Z,15.70
2022-09-13T00:46:47.762Z,15.80
2022-09-13T00:49:34.148Z,15.80
2022-09-13T00:52:05.979Z,15.90
2022-09-13T00:54:40.550Z,15.90
2022-09-13T00:57:09.528Z,15.90
2022-09-13T00:59:59.595Z,15.90
2022-09-13T01:02:28.901Z,16.00
2022-09-13T01:04:57.433Z,16.00
2022-09-13T01:07:24.618Z,16.00
2022-09-13T01:09:52.938Z,16.00
2022-09-13T01:12:44.283Z,15.90
2022-09-13T01:15:11.993Z,15.80
2022-09-13T01:17:39.988Z,15.80
2022-09-13T01:20:09.423Z,15.80
2022-09-13T01:23:26.347Z,15.80
2022-09-13T01:26:40.965Z,15.80
2022-09-13T01:29:37.237Z,15.80
2022-09-13T01:32:38.367Z,15.80
2022-09-13T01:35:25.778Z,15.80
2022-09-13T01:38:21.903Z,15.90
2022-09-13T01:41:32.875Z,16.00
2022-09-13T01:44:47.662Z,16.10
2022-09-13T01:47:41.519Z,16.10
2022-09-13T01:50:26.869Z,16.20
2022-09-13T01:53:22.382Z,16.20
2022-09-13T01:56:16.000Z,16.30
2022-09-13T01:59:01.356Z,16.40
2022-09-13T02:01:44.829Z,16.40
2022-09-13T02:04:27.980Z,16.50
2022-09-13T02:07:09.296Z,16.50
2022-09-13T02:09:41.063Z,16.60
2022-09-13T02:12:14.529Z,16.60
2022-09-13T02:14:45.411Z,16.60
2022-09-13T02:17:41.001Z,16.60
2022-09-13T02:20:27.231Z,16.70
2022-09-13T02:22:58.395Z,16.70
2022-09-13T02:25:27.972Z,16.60
2022-09-13T02:28:01.486Z,16.60
2022-09-13T02:30:31.600Z,16.70
2022-09-13T02:33:04.792Z,16.70
2022-09-13T02:35:36.687Z,16.70
2022-09-13T02:38:07.811Z,16.70
2022-09-13T02:40:42.664Z,16.80
2022-09-13T02:43:20.360Z,16.80
2022-09-13T02:46:27.803Z,16.90
2022-09-13T02:49:42.350Z,16.90
2022-09-13T02:52:50.122Z,16.90
2022-09-13T02:55:26.511Z,16.90
2022-09-13T02:58:31.048Z,17.00
2022-09-13T03:00:58.147Z,17.10
2022-09-13T03:03:25.483Z,17.10
2022-09-13T03:05:53.887Z,17.10
2022-09-13T03:08:22.074Z,17.10
2022-09-13T03:11:03.033Z,17.10
2022-09-13T03:14:19.549Z,17.20
2022-09-13T03:26:24.404Z,17.10
2022-09-13T03:33:18.366Z,16.90
2022-09-13T03:36:12.179Z,16.80
2022-09-13T03:39:10.787Z,16.70
2022-09-13T03:41:45.290Z,16.70
2022-09-13T03:44:16.954Z,16.60
2022-09-13T03:46:47.087Z,16.60
2022-09-13T03:49:19.343Z,16.70
2022-09-13T03:51:50.818Z,16.70
2022-09-13T03:54:28.976Z,16.80
2022-09-13T03:57:21.460Z,16.90
2022-09-13T03:59:50.707Z,17.00
2022-09-13T04:02:18.871Z,17.00
2022-09-13T04:04:46.766Z,17.00
2022-09-13T04:07:20.638Z,17.10
2022-09-13T04:09:47.691Z,17.10
2022-09-13T04:12:18.242Z,17.10
2022-09-13T04:14:45.363Z,17.10
2022-09-13T04:17:13.227Z,17.10
2022-09-13T04:19:40.476Z,17.00
2022-09-13T04:22:07.738Z,17.00
2022-09-13T04:24:37.545Z,17.00
2022-09-13T04:27:04.986Z,17.00
2022-09-13T04:29:33.147Z,17.00
2022-09-13T04:32:00.590Z,17.00
2022-09-13T04:34:28.101Z,17.00
2022-09-13T04:36:57.492Z,17.00
2022-09-13T04:39:24.432Z,17.00
2022-09-13T04:41:54.576Z,17.00
2022-09-13T04:44:21.831Z,17.00
2022-09-13T04:46:49.695Z,17.00
2022-09-13T04:49:18.468Z,17.10
2022-09-13T04:51:45.416Z,17.10
2022-09-13T04:54:15.566Z,17.10
2022-09-13T04:56:43.863Z,17.20
2022-09-13T04:59:11.897Z,17.20
2022-09-13T05:01:39.001Z,17.20
2022-09-13T05:04:07.369Z,17.20
2022-09-13T05:06:35.017Z,17.20
2022-09-13T05:09:02.505Z,17.20
2022-09-13T05:11:30.396Z,17.20
2022-09-13T05:13:59.343Z,17.20
2022-09-13T05:16:28.955Z,17.20
2022-09-13T05:18:56.486Z,17.20
2022-09-13T05:21:24.288Z,17.20
2022-09-13T05:23:55.647Z,17.20
2022-09-13T05:26:24.525Z,17.30
2022-09-13T05:28:51.450Z,17.30
2022-09-13T05:31:39.991Z,17.40
2022-09-13T05:34:10.778Z,17.40
2022-09-13T05:36:38.678Z,17.40
2022-09-13T05:39:29.318Z,17.40
2022-09-13T05:41:53.410Z,17.40
2022-09-13T05:44:20.324Z,17.40
2022-09-13T05:46:48.492Z,17.40
2022-09-13T05:49:15.679Z,17.50
2022-09-13T05:51:42.737Z,17.50
2022-09-13T05:54:12.384Z,17.50
2022-09-13T05:56:39.416Z,17.50
2022-09-13T05:59:06.330Z,17.50
2022-09-13T06:01:35.406Z,17.50
2022-09-13T06:04:02.594Z,17.50
2022-09-13T06:06:31.456Z,17.60
2022-09-13T06:08:58.361Z,17.60
2022-09-13T06:11:29.268Z,17.60
2022-09-13T06:13:56.242Z,17.60
2022-09-13T06:16:23.739Z,17.70
2022-09-13T06:18:50.855Z,17.70
2022-09-13T06:21:20.666Z,17.70
2022-09-13T06:23:53.177Z,17.70
2022-09-13T06:26:23.421Z,17.70
2022-09-13T06:28:55.859Z,17.70
2022-09-13T06:31:25.739Z,17.70
2022-09-13T06:34:02.657Z,17.80
2022-09-13T06:36:31.357Z,17.70
2022-09-13T06:39:00.772Z,17.70
2022-09-13T06:41:28.437Z,17.80
2022-09-13T06:43:57.701Z,17.80
2022-09-13T06:46:25.601Z,17.90
2022-09-13T06:48:53.281Z,18.00
2022-09-13T06:51:23.282Z,18.00
2022-09-13T06:53:51.943Z,18.10
2022-09-13T06:56:31.492Z,18.20
2022-09-13T06:59:05.003Z,18.30
2022-09-13T07:01:45.077Z,18.40
2022-09-13T07:04:17.417Z,18.50
2022-09-13T07:06:47.870Z,18.70
2022-09-13T07:09:18.269Z,19.00
2022-09-13T07:11:47.324Z,19.20
2022-09-13T07:14:23.338Z,19.30
2022-09-13T07:16:51.899Z,19.50
2022-09-13T07:19:22.814Z,19.70
2022-09-13T07:21:50.573Z,19.80
2022-09-13T07:24:18.587Z,20.00
2022-09-13T07:26:46.988Z,20.00
2022-09-13T07:29:19.498Z,20.10
2022-09-13T07:31:49.315Z,20.10
2022-09-13T07:34:19.249Z,20.00
2022-09-13T07:36:47.188Z,20.00
2022-09-13T07:39:19.211Z,20.20
2022-09-13T07:41:48.672Z,21.20
2022-09-13T07:44:15.760Z,22.60
2022-09-13T07:46:45.340Z,24.00
2022-09-13T07:49:16.279Z,24.80
2022-09-13T07:51:43.936Z,25.70
2022-09-13T07:54:17.689Z,25.70
2022-09-13T07:56:46.986Z,24.90
2022-09-13T07:59:15.794Z,24.20
2022-09-13T08:01:48.344Z,23.40
2022-09-13T08:04:18.672Z,22.90
2022-09-13T08:06:46.923Z,22.50
2022-09-13T08:09:15.058Z,22.30
2022-09-13T08:11:47.488Z,22.20
2022-09-13T08:14:17.664Z,22.20
2022-09-13T08:16:44.688Z,22.50
2022-09-13T08:19:14.685Z,23.30
2022-09-13T08:21:43.633Z,24.60
2022-09-13T08:24:20.659Z,25.60
2022-09-13T08:26:48.168Z,26.50
2022-09-13T08:29:15.727Z,26.60
2022-09-13T08:31:43.378Z,26.30
2022-09-13T08:34:15.416Z,25.80
2022-09-13T08:36:43.241Z,26.20
2022-09-13T08:39:13.925Z,26.60
2022-09-13T08:41:42.246Z,26.30
2022-09-13T08:44:29.854Z,25.50
2022-09-13T08:47:55.131Z,25.10
2022-09-13T08:50:36.956Z,25.10
2022-09-13T08:53:29.240Z,25.00
2022-09-13T08:56:24.001Z,25.10
2022-09-13T08:59:16.742Z,25.30
2022-09-13T09:02:31.259Z,26.40
2022-09-13T09:05:19.400Z,26.90
2022-09-13T09:08:05.194Z,27.40
2022-09-13T09:10:42.898Z,27.80
2022-09-13T09:13:54.432Z,28.30
2022-09-13T09:16:59.471Z,28.60
2022-09-13T09:19:38.241Z,28.80
2022-09-13T09:22:18.632Z,28.40
2022-09-13T09:24:52.345Z,28.00
2022-09-13T09:27:20.623Z,28.10
2022-09-13T09:29:53.783Z,28.30
2022-09-13T09:33:21.676Z,28.80
2022-09-13T09:36:11.038Z,28.40
2022-09-13T09:38:43.305Z,27.90
2022-09-13T09:41:32.755Z,28.10
2022-09-13T09:44:27.477Z,28.20
2022-09-13T09:47:15.854Z,28.90
2022-09-13T09:50:12.295Z,28.40
2022-09-13T09:52:53.880Z,28.20
2022-09-13T09:55:32.558Z,28.30
2022-09-13T09:58:02.082Z,28.00
2022-09-13T10:00:33.225Z,28.00
2022-09-13T10:03:07.644Z,28.10
2022-09-13T10:05:35.461Z,28.00
2022-09-13T10:08:07.527Z,27.90
2022-09-13T10:10:43.403Z,28.10
2022-09-13T10:13:18.870Z,28.30
2022-09-13T10:16:26.416Z,28.30
2022-09-13T10:18:53.777Z,28.20
2022-09-13T10:21:27.124Z,28.20
2022-09-13T10:24:17.895Z,28.10
2022-09-13T10:26:45.780Z,28.10
2022-09-13T10:29:17.837Z,27.60
2022-09-13T10:31:47.776Z,27.10
2022-09-13T10:34:21.259Z,27.00
2022-09-13T10:37:05.605Z,27.00
2022-09-13T10:39:36.619Z,27.00
2022-09-13T10:42:06.805Z,27.30
2022-09-13T10:44:41.639Z,27.60
2022-09-13T10:47:19.970Z,27.90
2022-09-13T10:49:58.039Z,28.20
2022-09-13T10:52:45.551Z,28.10
2022-09-13T10:55:44.012Z,28.10
2022-09-13T10:58:14.769Z,28.20
2022-09-13T11:00:50.848Z,27.70
2022-09-13T11:04:14.854Z,27.40
2022-09-13T11:06:57.279Z,27.40
2022-09-13T11:10:13.116Z,27.40
2022-09-13T11:13:07.595Z,27.30
2022-09-13T11:15:58.628Z,27.20
2022-09-13T11:18:55.044Z,27.60
2022-09-13T11:25:38.906Z,27.90
2022-09-13T11:28:25.037Z,27.80
2022-09-13T11:31:33.959Z,28.00
2022-09-13T11:34:42.605Z,27.80
2022-09-13T11:37:45.814Z,27.40
2022-09-13T11:40:57.470Z,27.20
2022-09-13T11:44:13.420Z,26.90
2022-09-13T12:03:18.840Z,26.20
2022-09-13T12:05:53.923Z,26.40
2022-09-13T12:08:31.106Z,27.40
2022-09-13T12:11:19.611Z,27.80
2022-09-13T12:14:06.745Z,27.80
2022-09-13T12:17:02.706Z,27.90
2022-09-13T12:19:51.781Z,27.60
2022-09-13T12:22:20.025Z,27.00
2022-09-13T12:24:58.027Z,26.80
2022-09-13T12:27:40.355Z,26.70
2022-09-13T12:30:28.773Z,26.90
2022-09-13T12:32:58.957Z,26.80
2022-09-13T12:36:01.454Z,27.40
2022-09-13T12:39:03.654Z,27.60
2022-09-13T12:42:08.122Z,26.90
2022-09-13T12:44:54.222Z,26.70
2022-09-13T12:47:39.730Z,26.20
2022-09-13T12:50:42.752Z,26.00
2022-09-13T12:54:05.707Z,25.80
2022-09-13T12:57:07.409Z,25.80
2022-09-13T12:59:42.957Z,25.70
2022-09-13T13:02:34.953Z,25.60
2022-09-13T13:05:15.287Z,26.00
2022-09-13T13:07:46.468Z,26.20
2022-09-13T13:10:27.263Z,26.60
2022-09-13T13:12:54.689Z,26.50
2022-09-13T13:15:47.811Z,26.20
2022-09-13T13:18:56.649Z,26.00
2022-09-13T13:21:40.789Z,25.80
2022-09-13T13:24:44.392Z,25.60
2022-09-13T13:27:37.842Z,25.70
2022-09-13T13:30:43.841Z,25.90
2022-09-13T13:33:29.698Z,26.00
2022-09-13T13:35:56.738Z,25.70
2022-09-13T13:38:48.253Z,25.90
2022-09-13T13:41:54.410Z,26.20
2022-09-13T13:45:01.911Z,25.90
2022-09-13T13:47:53.759Z,26.00
2022-09-13T13:50:21.627Z,26.50
2022-09-13T13:52:56.730Z,26.90
2022-09-13T13:55:47.758Z,27.50
2022-09-13T13:58:51.948Z,28.20
2022-09-13T14:01:25.996Z,27.90
2022-09-13T14:04:26.483Z,27.90
2022-09-13T14:07:51.755Z,27.20
2022-09-13T14:10:24.474Z,26.90
2022-09-13T14:13:19.931Z,27.20
2022-09-13T14:15:58.260Z,27.30
2022-09-13T14:19:08.912Z,27.80
2022-09-13T14:21:36.133Z,27.80
2022-09-13T14:24:24.618Z,27.50
2022-09-13T14:26:54.698Z,27.30
2022-09-13T14:29:26.559Z,26.80
2022-09-13T14:32:04.480Z,26.20
2022-09-13T14:34:38.246Z,25.70
2022-09-13T14:37:15.512Z,25.50
2022-09-13T14:39:55.545Z,25.30
2022-09-13T14:42:22.593Z,25.20
2022-09-13T14:44:49.858Z,25.10
2022-09-13T14:47:28.371Z,24.90
2022-09-13T14:50:07.077Z,25.00
2022-09-13T14:52:38.057Z,25.00
2022-09-13T14:55:15.732Z,25.00
2022-09-13T14:57:50.501Z,25.00
2022-09-13T15:00:24.481Z,24.80
2022-09-13T15:03:04.076Z,24.60
2022-09-13T15:05:35.656Z,24.40
2022-09-13T15:08:54.532Z,24.20
2022-09-13T15:11:31.339Z,24.00
2022-09-13T15:14:22.321Z,24.00
2022-09-13T15:16:54.622Z,24.10
2022-09-13T15:19:53.397Z,24.10
2022-09-13T15:22:30.293Z,24.10
2022-09-13T15:24:58.745Z,24.00
2022-09-13T15:27:29.638Z,24.00
2022-09-13T15:30:03.225Z,24.00
2022-09-13T15:32:55.646Z,24.00
2022-09-13T15:35:31.448Z,24.00
2022-09-13T15:38:14.517Z,23.90
2022-09-13T15:40:47.177Z,23.90
2022-09-13T15:43:14.320Z,23.90
2022-09-13T15:45:41.198Z,24.00
2022-09-13T15:48:17.186Z,24.10
2022-09-13T15:50:44.368Z,24.20
2022-09-13T15:53:12.845Z,24.10
2022-09-13T15:55:40.053Z,24.00
2022-09-13T15:58:07.039Z,23.90
2022-09-13T16:00:34.137Z,23.80
2022-09-13T16:03:01.122Z,23.80
2022-09-13T16:05:28.023Z,23.70
2022-09-13T16:07:58.902Z,23.70
2022-09-13T16:10:25.869Z,23.60
2022-09-13T16:12:55.685Z,23.60
2022-09-13T16:15:23.156Z,23.60
2022-09-13T16:17:50.105Z,23.50
2022-09-13T16:20:17.357Z,23.50
2022-09-13T16:22:44.295Z,23.40
2022-09-13T16:25:13.688Z,23.40
2022-09-13T16:27:42.268Z,23.40
2022-09-13T16:30:13.038Z,23.40
2022-09-13T16:32:41.425Z,23.40
2022-09-13T16:35:09.974Z,23.40
2022-09-13T16:37:37.191Z,23.30
2022-09-13T16:40:05.068Z,23.20
2022-09-13T16:42:33.011Z,23.10
2022-09-13T16:44:59.986Z,22.90
2022-09-13T16:47:26.979Z,22.90
2022-09-13T16:49:54.299Z,22.80
2022-09-13T16:52:21.430Z,22.80
2022-09-13T16:54:49.532Z,22.80
2022-09-13T16:57:16.408Z,22.70
2022-09-13T16:59:43.382Z,22.70
2022-09-13T17:02:13.960Z,22.60
2022-09-13T17:04:41.008Z,22.50
2022-09-13T17:07:08.232Z,22.40
2022-09-13T17:09:35.392Z,22.40
2022-09-13T17:12:02.655Z,22.30
2022-09-13T17:14:29.865Z,22.30
2022-09-13T17:16:57.988Z,22.20
2022-09-13T17:19:27.088Z,22.20
2022-09-13T17:21:57.522Z,22.10
2022-09-13T17:24:26.147Z,22.00
2022-09-13T17:26:54.313Z,22.00
2022-09-13T17:29:21.415Z,21.90
2022-09-13T17:31:49.302Z,21.90
2022-09-13T17:34:16.580Z,21.80
2022-09-13T17:36:44.986Z,21.80
2022-09-13T17:39:13.320Z,21.80
2022-09-13T17:41:42.540Z,21.70
2022-09-13T17:44:09.520Z,21.60
2022-09-13T17:46:36.643Z,21.50
2022-09-13T17:49:04.745Z,21.50
2022-09-13T17:51:33.597Z,21.50
2022-09-13T17:54:03.501Z,21.50
2022-09-13T17:56:33.999Z,21.40
2022-09-13T17:59:15.955Z,21.40
2022-09-13T18:01:45.149Z,21.30
2022-09-13T18:04:14.006Z,21.30
2022-09-13T18:06:42.924Z,21.30
2022-09-13T18:09:11.569Z,21.30
2022-09-13T18:11:38.798Z,21.30
2022-09-13T18:14:06.393Z,21.20
2022-09-13T18:16:34.103Z,21.30
2022-09-13T18:19:01.750Z,21.20
2022-09-13T18:21:29.100Z,21.20
2022-09-13T18:23:58.820Z,21.20
2022-09-13T18:26:27.399Z,21.20
2022-09-13T18:28:57.186Z,21.20
2022-09-13T18:31:25.559Z,21.20
2022-09-13T18:34:01.250Z,21.20
2022-09-13T18:36:29.775Z,21.20
2022-09-13T18:38:57.693Z,21.20
2022-09-13T18:41:27.611Z,21.20
2022-09-13T18:43:56.178Z,21.20
2022-09-13T18:46:26.572Z,21.20
2022-09-13T18:48:57.783Z,21.10
2022-09-13T18:51:35.148Z,21.10
2022-09-13T18:54:03.735Z,21.10
2022-09-13T18:56:30.883Z,21.00
2022-09-13T18:59:00.660Z,21.00
2022-09-13T19:01:30.689Z,21.00
2022-09-13T19:04:05.875Z,21.00
2022-09-13T19:06:42.338Z,21.00
2022-09-13T19:09:10.420Z,21.00
2022-09-13T19:11:47.767Z,21.00
2022-09-13T19:14:18.249Z,20.90
2022-09-13T19:16:45.364Z,20.90
2022-09-13T19:19:12.593Z,20.80
2022-09-13T19:21:39.579Z,20.80
2022-09-13T19:24:11.694Z,20.70
2022-09-13T19:26:40.148Z,20.60
2022-09-13T19:29:10.550Z,20.50
2022-09-13T19:31:43.416Z,20.40
2022-09-13T19:34:10.933Z,20.40
2022-09-13T19:36:39.653Z,20.30
2022-09-13T19:39:08.032Z,20.20
2022-09-13T19:41:37.147Z,20.10
2022-09-13T19:44:04.508Z,20.10
2022-09-13T19:46:38.271Z,20.10
2022-09-13T19:49:06.364Z,20.00
2022-09-13T19:51:36.056Z,20.00
2022-09-13T19:54:04.372Z,20.00
2022-09-13T19:56:38.099Z,20.00
2022-09-13T19:59:07.189Z,19.90
2022-09-13T20:01:38.454Z,19.90
2022-09-13T20:04:07.805Z,19.80
2022-09-13T20:06:42.969Z,19.80
2022-09-13T20:09:10.796Z,19.70
2022-09-13T20:11:42.096Z,19.70
2022-09-13T20:14:09.985Z,19.70
2022-09-13T20:16:38.564Z,19.60
2022-09-13T20:19:29.654Z,19.60
2022-09-13T20:21:55.627Z,19.50
2022-09-13T20:24:26.000Z,19.50
2022-09-13T20:26:53.157Z,19.50
2022-09-13T20:29:20.807Z,19.40
2022-09-13T20:31:48.136Z,19.40
2022-09-13T20:34:15.426Z,19.30
2022-09-13T20:36:47.175Z,19.20
2022-09-13T20:39:15.262Z,19.20
2022-09-13T20:41:43.650Z,19.10
2022-09-13T20:44:10.866Z,19.00
2022-09-13T20:46:39.302Z,19.00
2022-09-13T20:49:08.725Z,18.90
2022-09-13T20:51:35.729Z,18.80
2022-09-13T20:54:02.657Z,18.80
2022-09-13T20:56:30.564Z,18.70
2022-09-13T20:59:00.464Z,18.70
2022-09-13T21:01:29.642Z,18.70
2022-09-13T21:03:58.073Z,18.60
2022-09-13T21:06:27.751Z,18.60
2022-09-13T21:08:56.773Z,18.50
2022-09-13T21:11:33.344Z,18.50
2022-09-13T21:14:05.991Z,18.50
2022-09-13T21:16:35.650Z,18.40
2022-09-13T21:19:03.745Z,18.40
2022-09-13T21:21:33.867Z,18.40
2022-09-13T21:24:03.911Z,18.30
2022-09-13T21:26:31.853Z,18.20
2022-09-13T21:28:59.318Z,18.20
2022-09-13T21:31:32.812Z,18.20
2022-09-13T21:34:12.083Z,18.20
2022-09-13T21:36:40.051Z,18.10
2022-09-13T21:39:07.514Z,18.10
2022-09-13T21:41:35.454Z,18.00
2022-09-13T21:44:02.683Z,18.00
2022-09-13T21:46:32.064Z,18.00
2022-09-13T21:49:02.536Z,18.00
2022-09-13T21:51:39.124Z,18.00
2022-09-13T21:54:08.502Z,18.00
2022-09-13T21:56:38.798Z,18.00
2022-09-13T21:59:09.120Z,18.00
2022-09-13T22:01:42.419Z,18.00
2022-09-13T22:04:18.543Z,17.90
2022-09-13T22:06:47.966Z,17.90
2022-09-13T22:09:15.955Z,18.00
2022-09-13T22:11:46.550Z,17.90
2022-09-13T22:14:15.737Z,17.90
2022-09-13T22:16:45.069Z,17.80
2022-09-13T22:19:15.234Z,17.80
2022-09-13T22:21:44.955Z,17.80
2022-09-13T22:24:20.738Z,17.70
2022-09-13T22:26:50.064Z,17.70
2022-09-13T22:29:18.145Z,17.70
2022-09-13T22:31:47.525Z,17.60
2022-09-13T22:34:17.436Z,17.60
2022-09-13T22:36:45.118Z,17.60
2022-09-13T22:39:14.009Z,17.60
2022-09-13T22:41:41.853Z,17.60
2022-09-13T22:44:09.202Z,17.60
2022-09-13T22:46:42.552Z,17.50
2022-09-13T22:49:13.487Z,17.50
2022-09-13T22:51:40.599Z,17.50
2022-09-13T22:54:08.780Z,17.40
2022-09-13T22:56:37.274Z,17.40
2022-09-13T22:59:19.298Z,17.40
2022-09-13T23:01:46.672Z,17.40
2022-09-13T23:04:14.325Z,17.40
2022-09-13T23:06:44.143Z,17.40
2022-09-13T23:09:18.151Z,17.30
2022-09-13T23:11:45.782Z,17.30
2022-09-13T23:14:14.998Z,17.30
2022-09-13T23:16:45.352Z,17.30
2022-09-13T23:19:14.054Z,17.20
2022-09-13T23:21:42.231Z,17.20
2022-09-13T23:24:13.169Z,17.20
2022-09-13T23:26:41.969Z,17.20
2022-09-13T23:29:14.135Z,17.10
2022-09-13T23:31:41.729Z,17.10
2022-09-13T23:34:11.725Z,17.10
2022-09-13T23:36:41.624Z,17.00
2022-09-13T23:39:12.862Z,17.00
2022-09-13T23:41:40.226Z,17.00
2022-09-13T23:44:07.337Z,17.00
2022-09-13T23:46:34.397Z,17.00
2022-09-13T23:49:01.800Z,17.00
2022-09-13T23:51:28.861Z,17.00
2022-09-13T23:53:57.397Z,17.00
2022-09-13T23:56:26.937Z,16.90
2022-09-13T23:58:57.277Z,16.90
